< < Back
Terminal Aerodrome Forecast


Current Version              Previous Versions:   1  2  3  4  5  6  7  8  9  

Terminal Aerodrome Forecast

726
FTUS44 KBMX 151700
TAFMGM
TAF
KMGM 151723Z 1518/1618 32015G26KT P6SM OVC015
     FM152200 33017G30KT P6SM SCT050
     FM160100 35012KT P6SM SKC
     FM160900 01008KT P6SM SKC
     FM161500 09013KT P6SM SKC=

Latest METAR

820
SAUS80 KWBC 161300 RRA
MTRMGM
METAR KMGM 161253Z 06008KT 10SM CLR 05/M02 A3025 RMK AO2 SLP244
T00501017


USA.gov is the U.S. government's official web portal to all federal, state and local government web resources and services.